Time;durP1;ratioP1;P1;durP2;ratioP2;P2;SDS_P1;SDS_P2;PMS_P1;PMS_P2;Temp;Humidity;BMP_temperature;BMP_pressure;BME280_temperature;BME280_humidity;BME280_pressure;Samples;Min_cycle;Max_cycle;Signal;HPM_P1;HPM_P2
2021/09/22 00:02:11;;;;;;;38.15;19.10;;;;;;;;;;5120762;27;20059;-83
2021/09/22 00:04:38;;;;;;;35.70;17.80;;;;;;;;;;5139483;27;20075;-83
2021/09/22 00:07:04;;;;;;;37.35;20.63;;;;;;;;;;5142294;27;20429;-84
2021/09/22 00:09:31;;;;;;;34.08;19.27;;;;;;;;;;5118982;28;20077;-83
2021/09/22 00:11:58;;;;;;;42.22;21.92;;;;;;;;;;5108324;28;20035;-82
2021/09/22 00:14:25;;;;;;;47.90;22.77;;;;;;;;;;5123036;28;20114;-83
2021/09/22 00:16:52;;;;;;;47.70;23.27;;;;;;;;;;5144547;27;20442;-86
2021/09/22 00:19:19;;;;;;;55.05;25.55;;;;;;;;;;5142609;28;20119;-84
2021/09/22 00:21:45;;;;;;;41.80;23.30;;;;;;;;;;5122347;28;20055;-83
2021/09/22 00:24:12;;;;;;;45.22;23.55;;;;;;;;;;5140344;28;20086;-84
2021/09/22 00:26:39;;;;;;;44.67;23.15;;;;;;;;;;5139755;28;20055;-84
2021/09/22 00:29:05;;;;;;;50.75;26.52;;;;;;;;;;5121311;28;20055;-84
2021/09/22 00:31:46;;;;;;;50.88;25.80;;;;;;;;;;5139937;28;20062;-84
2021/09/22 00:34:13;;;;;;;49.03;26.10;;;;;;;;;;5124297;28;20051;-84
2021/09/22 00:36:39;;;;;;;51.85;26.00;;;;;;;;;;5140429;28;20059;-84
2021/09/22 00:39:06;;;;;;;58.17;29.65;;;;;;;;;;5124292;28;20058;-84
2021/09/22 00:41:45;;;;;;;46.40;27.20;;;;;;;;;;5136581;28;20062;-82
2021/09/22 00:44:12;;;;;;;50.95;26.85;;;;;;;;;;5124253;28;20051;-82
2021/09/22 00:46:39;;;;;;;62.67;28.65;;;;;;;;;;5141233;28;20085;-84
2021/09/22 00:49:05;;;;;;;49.58;27.50;;;;;;;;;;5123547;28;20061;-83
2021/09/22 00:51:33;;;;;;;49.10;26.63;;;;;;;;;;5141235;28;20124;-83
2021/09/22 00:53:59;;;;;;;48.53;25.98;;;;;;;;;;5119935;28;20133;-83
2021/09/22 00:56:31;;;;;;;48.63;26.45;;;;;;;;;;5121779;28;20419;-83
2021/09/22 00:59:07;;;;;;;50.10;26.35;;;;;;;;;;5121235;27;20078;-84
2021/09/22 01:01:34;;;;;;;;;;;;;;;;;;5143351;27;20047;-84
2021/09/22 01:04:01;;;;;;;;;;;;;;;;;;5127319;27;20000;-84
2021/09/22 01:06:28;;;;;;;52.30;26.88;;;;;;;;;;5125006;27;19923;-84
2021/09/22 01:09:00;;;;;;;54.70;28.60;;;;;;;;;;5107766;28;20080;-83
2021/09/22 01:11:27;;;;;;;49.55;27.70;;;;;;;;;;5125333;27;20052;-84
2021/09/22 01:13:54;;;;;;;50.65;27.15;;;;;;;;;;5142054;27;20146;-83
2021/09/22 01:16:24;;;;;;;50.15;26.52;;;;;;;;;;5141740;27;20059;-84
2021/09/22 01:18:51;;;;;;;52.72;28.08;;;;;;;;;;5145595;27;20057;-83
2021/09/22 01:21:18;;;;;;;53.15;29.20;;;;;;;;;;5142309;27;20058;-83
2021/09/22 01:23:45;;;;;;;56.92;29.02;;;;;;;;;;5125269;27;20350;-83
2021/09/22 01:26:12;;;;;;;59.55;30.17;;;;;;;;;;5132915;27;20051;-82
2021/09/22 01:28:39;;;;;;;56.53;30.48;;;;;;;;;;5151271;27;20043;-83
2021/09/22 01:31:06;;;;;;;72.07;33.80;;;;;;;;;;5132189;27;20043;-82
2021/09/22 01:33:33;;;;;;;59.10;30.50;;;;;;;;;;5129169;27;20054;-85
2021/09/22 01:35:59;;;;;;;53.72;31.08;;;;;;;;;;5140120;27;20139;-83
2021/09/22 01:38:27;;;;;;;54.83;30.45;;;;;;;;;;5135849;27;20058;-83
2021/09/22 01:41:00;;;;;;;58.28;30.30;;;;;;;;;;5142876;27;20342;-83
2021/09/22 01:43:28;;;;;;;50.58;28.50;;;;;;;;;;5142675;27;20059;-83
2021/09/22 01:45:55;;;;;;;46.45;27.98;;;;;;;;;;5124625;27;20138;-83
2021/09/22 01:48:22;;;;;;;51.47;29.70;;;;;;;;;;5142958;27;20040;-84
2021/09/22 01:50:49;;;;;;;58.92;32.03;;;;;;;;;;5121314;28;20048;-84
2021/09/22 01:53:16;;;;;;;58.60;31.75;;;;;;;;;;5102954;28;20051;-84
2021/09/22 01:55:44;;;;;;;57.25;30.65;;;;;;;;;;5122072;28;20051;-84
2021/09/22 01:58:11;;;;;;;48.78;27.50;;;;;;;;;;5109513;28;20039;-83
2021/09/22 02:00:41;;;;;;;55.22;29.00;;;;;;;;;;5138298;28;20039;-82
2021/09/22 02:03:08;;;;;;;63.22;31.17;;;;;;;;;;5135057;28;20051;-83
2021/09/22 02:05:35;;;;;;;67.25;33.80;;;;;;;;;;5105420;28;20054;-84
2021/09/22 02:08:02;;;;;;;59.33;30.13;;;;;;;;;;5121719;28;20322;-83
2021/09/22 02:10:29;;;;;;;56.90;32.05;;;;;;;;;;5128226;28;20104;-84
2021/09/22 02:12:56;;;;;;;58.70;31.35;;;;;;;;;;5137848;28;20078;-84
2021/09/22 02:15:24;;;;;;;64.50;33.42;;;;;;;;;;5106817;28;20082;-83
2021/09/22 02:17:51;;;;;;;62.97;32.03;;;;;;;;;;5104270;28;20059;-83
2021/09/22 02:20:18;;;;;;;62.00;31.98;;;;;;;;;;5128457;28;20048;-83
2021/09/22 02:22:44;;;;;;;61.50;31.50;;;;;;;;;;5111379;28;20086;-83
2021/09/22 02:25:12;;;;;;;59.13;29.38;;;;;;;;;;5125643;28;20047;-84
2021/09/22 02:27:39;;;;;;;57.97;29.65;;;;;;;;;;5103686;28;20103;-84
2021/09/22 02:30:08;;;;;;;59.92;32.72;;;;;;;;;;5101864;28;20111;-84
2021/09/22 02:32:34;;;;;;;64.00;33.75;;;;;;;;;;5101728;28;20066;-84
2021/09/22 02:35:01;;;;;;;55.13;29.75;;;;;;;;;;5120467;28;20051;-84
2021/09/22 02:37:28;;;;;;;50.58;28.77;;;;;;;;;;5129999;28;20040;-84
2021/09/22 02:39:55;;;;;;;50.28;28.80;;;;;;;;;;5118676;28;20043;-83
2021/09/22 02:42:28;;;;;;;53.80;29.52;;;;;;;;;;5135418;28;20058;-84
2021/09/22 02:44:55;;;;;;;49.92;29.58;;;;;;;;;;5135128;28;20039;-81
2021/09/22 02:47:21;;;;;;;53.83;29.92;;;;;;;;;;5134476;28;20119;-82
2021/09/22 02:49:48;;;;;;;52.88;28.50;;;;;;;;;;5135167;28;20095;-84
2021/09/22 02:52:15;;;;;;;49.97;27.45;;;;;;;;;;5108175;28;20116;-83
2021/09/22 02:54:42;;;;;;;46.28;28.60;;;;;;;;;;5122960;28;20083;-83
2021/09/22 02:57:09;;;;;;;55.45;30.95;;;;;;;;;;5122873;28;20123;-83
2021/09/22 02:59:35;;;;;;;50.97;29.63;;;;;;;;;;5120305;28;20054;-84
2021/09/22 03:02:05;;;;;;;50.70;30.02;;;;;;;;;;5120803;28;20143;-84
2021/09/22 03:04:35;;;;;;;48.95;28.10;;;;;;;;;;5102564;28;20532;-84
2021/09/22 03:07:02;;;;;;;43.38;27.92;;;;;;;;;;5121579;28;20066;-84
2021/09/22 03:09:29;;;;;;;50.00;27.48;;;;;;;;;;5120878;28;20090;-83
2021/09/22 03:11:56;;;;;;;45.80;27.17;;;;;;;;;;5102330;28;20090;-84
2021/09/22 03:14:22;;;;;;;46.45;27.33;;;;;;;;;;5120525;28;20048;-84
2021/09/22 03:16:49;;;;;;;44.75;25.80;;;;;;;;;;5120147;28;20056;-83
2021/09/22 03:19:16;;;;;;;45.92;27.20;;;;;;;;;;5119313;28;20043;-84
2021/09/22 03:21:42;;;;;;;45.63;25.95;;;;;;;;;;5118661;28;20139;-83
2021/09/22 03:24:09;;;;;;;44.95;25.83;;;;;;;;;;5120260;28;20584;-83
2021/09/22 03:26:36;;;;;;;48.78;28.83;;;;;;;;;;5118344;28;20137;-83
2021/09/22 03:29:03;;;;;;;45.47;27.52;;;;;;;;;;5119714;28;20347;-83
2021/09/22 03:31:29;;;;;;;48.78;27.30;;;;;;;;;;5130167;27;20115;-83
2021/09/22 03:33:59;;;;;;;52.25;27.58;;;;;;;;;;5120998;27;20066;-83
2021/09/22 03:36:26;;;;;;;46.10;25.92;;;;;;;;;;5121589;27;20115;-83
2021/09/22 03:38:53;;;;;;;40.05;24.08;;;;;;;;;;5137853;27;20051;-84
2021/09/22 03:41:19;;;;;;;43.45;26.02;;;;;;;;;;5138832;27;20272;-84
2021/09/22 03:43:46;;;;;;;53.72;27.65;;;;;;;;;;5138959;27;20122;-84
2021/09/22 03:46:13;;;;;;;43.63;25.83;;;;;;;;;;5120440;27;20069;-84
2021/09/22 03:48:40;;;;;;;50.25;27.23;;;;;;;;;;5120630;27;20061;-84
2021/09/22 03:51:06;;;;;;;45.55;27.15;;;;;;;;;;5121735;27;20341;-84
2021/09/22 03:53:33;;;;;;;44.47;26.70;;;;;;;;;;5122848;27;20153;-83
2021/09/22 03:56:02;;;;;;;43.92;25.33;;;;;;;;;;5148825;27;20055;-83
2021/09/22 03:58:29;;;;;;;48.03;26.92;;;;;;;;;;5125849;27;20119;-84
2021/09/22 04:00:56;;;;;;;45.42;27.75;;;;;;;;;;5121353;27;20362;-84
2021/09/22 04:03:23;;;;;;;50.10;27.60;;;;;;;;;;5137850;27;20047;-85
2021/09/22 04:05:50;;;;;;;49.40;26.00;;;;;;;;;;5120492;27;20112;-85
2021/09/22 04:08:17;;;;;;;43.97;27.25;;;;;;;;;;5117828;27;20055;-85
2021/09/22 04:10:43;;;;;;;51.17;27.60;;;;;;;;;;5135621;27;20425;-85
2021/09/22 04:13:10;;;;;;;50.05;27.42;;;;;;;;;;5136722;27;20047;-84
2021/09/22 04:15:37;;;;;;;48.65;27.30;;;;;;;;;;5113674;28;20059;-84
2021/09/22 04:18:07;;;;;;;48.35;27.55;;;;;;;;;;5115285;28;20346;-84
2021/09/22 04:20:34;;;;;;;44.05;27.02;;;;;;;;;;5116800;28;20138;-84
2021/09/22 04:23:03;;;;;;;44.28;26.27;;;;;;;;;;5116143;28;20056;-83
2021/09/22 04:25:39;;;;;;;44.53;25.88;;;;;;;;;;5115423;28;20055;-83
2021/09/22 04:28:14;;;;;;;47.00;24.42;;;;;;;;;;5117864;28;20387;-83
2021/09/22 04:30:41;;;;;;;44.58;25.65;;;;;;;;;;5117290;28;20412;-84
2021/09/22 04:33:07;;;;;;;42.58;25.48;;;;;;;;;;5116325;28;20052;-85
2021/09/22 04:35:34;;;;;;;43.45;25.50;;;;;;;;;;5118791;28;20052;-85
2021/09/22 04:38:01;;;;;;;49.45;25.88;;;;;;;;;;5121216;28;20081;-85
2021/09/22 04:40:42;;;;;;;45.47;26.33;;;;;;;;;;5122358;27;20056;-85
2021/09/22 04:43:09;;;;;;;43.53;24.65;;;;;;;;;;5126691;28;20063;-84
2021/09/22 04:45:38;;;;;;;41.55;23.85;;;;;;;;;;5131542;28;20044;-84
2021/09/22 04:48:06;;;;;;;45.95;26.63;;;;;;;;;;5121739;28;20071;-84
2021/09/22 04:50:33;;;;;;;47.20;25.10;;;;;;;;;;5115630;28;20241;-83
2021/09/22 04:52:59;;;;;;;62.72;26.10;;;;;;;;;;5114927;28;20043;-83
2021/09/22 04:55:26;;;;;;;51.95;26.80;;;;;;;;;;5116443;28;20112;-83
2021/09/22 04:57:53;;;;;;;48.70;27.00;;;;;;;;;;5105835;28;20048;-84
2021/09/22 05:00:19;;;;;;;57.92;27.98;;;;;;;;;;5096324;28;20415;-83
2021/09/22 05:02:46;;;;;;;50.95;27.02;;;;;;;;;;5095986;28;20289;-84
2021/09/22 05:05:13;;;;;;;68.25;30.23;;;;;;;;;;5095152;28;20071;-83
2021/09/22 05:07:40;;;;;;;51.53;28.20;;;;;;;;;;5100049;28;20048;-85
2021/09/22 05:10:08;;;;;;;57.90;28.58;;;;;;;;;;5104894;28;20284;-84
2021/09/22 05:12:34;;;;;;;60.72;27.75;;;;;;;;;;5097877;28;20048;-83
2021/09/22 05:15:02;;;;;;;55.10;28.02;;;;;;;;;;5111818;27;20067;-84
2021/09/22 05:17:28;;;;;;;52.33;28.35;;;;;;;;;;5137827;27;20047;-84
2021/09/22 05:19:55;;;;;;;62.85;29.38;;;;;;;;;;5113556;28;20077;-84
2021/09/22 05:22:22;;;;;;;53.35;27.67;;;;;;;;;;5112289;28;20059;-83
2021/09/22 05:24:49;;;;;;;60.33;28.10;;;;;;;;;;5129863;28;20043;-83
2021/09/22 05:27:19;;;;;;;58.90;30.58;;;;;;;;;;5136787;27;20143;-85
2021/09/22 05:29:45;;;;;;;60.08;32.00;;;;;;;;;;5117204;27;20051;-85
2021/09/22 05:32:13;;;;;;;69.32;31.38;;;;;;;;;;5137308;27;20337;-84
2021/09/22 05:34:39;;;;;;;69.22;32.92;;;;;;;;;;5149124;27;20042;-85
2021/09/22 05:37:06;;;;;;;63.00;32.15;;;;;;;;;;5135420;27;20114;-84
2021/09/22 05:39:33;;;;;;;75.78;33.50;;;;;;;;;;5131217;27;20057;-83
2021/09/22 05:41:59;;;;;;;64.45;32.50;;;;;;;;;;5132510;27;20061;-84
2021/09/22 05:44:26;;;;;;;71.60;32.85;;;;;;;;;;5096393;28;20059;-84
2021/09/22 05:46:58;;;;;;;70.28;32.47;;;;;;;;;;5095740;28;20384;-84
2021/09/22 05:49:26;;;;;;;71.20;32.15;;;;;;;;;;5109801;28;20496;-84
2021/09/22 05:51:53;;;;;;;82.80;32.67;;;;;;;;;;5121684;27;20051;-84
2021/09/22 05:54:23;;;;;;;62.55;31.73;;;;;;;;;;5130879;27;20314;-84
2021/09/22 05:56:50;;;;;;;65.18;32.58;;;;;;;;;;5118741;27;20067;-84
2021/09/22 05:59:17;;;;;;;64.32;32.08;;;;;;;;;;5129834;27;20222;-84
2021/09/22 06:01:47;;;;;;;61.78;31.08;;;;;;;;;;5111038;27;20071;-84
2021/09/22 06:04:14;;;;;;;62.03;31.17;;;;;;;;;;5126054;27;20442;-83
2021/09/22 06:06:41;;;;;;;52.40;30.17;;;;;;;;;;5132200;27;20058;-86
2021/09/22 06:09:07;;;;;;;58.63;32.67;;;;;;;;;;5135355;27;20118;-84
2021/09/22 06:11:38;;;;;;;59.00;32.35;;;;;;;;;;5138226;27;20261;-84
2021/09/22 06:14:05;;;;;;;63.45;33.63;;;;;;;;;;5133419;27;20124;-84
2021/09/22 06:16:32;;;;;;;60.75;32.22;;;;;;;;;;5114069;28;20066;-85
2021/09/22 06:19:08;;;;;;;62.55;33.50;;;;;;;;;;5113566;27;20047;-84
2021/09/22 06:21:39;;;;;;;59.42;32.50;;;;;;;;;;5115850;27;20062;-84
2021/09/22 06:24:06;;;;;;;75.05;36.60;;;;;;;;;;5138012;27;20084;-84
2021/09/22 06:26:33;;;;;;;77.18;37.50;;;;;;;;;;5118668;27;20055;-84
2021/09/22 06:28:59;;;;;;;83.68;39.85;;;;;;;;;;5132592;27;20123;-84
2021/09/22 06:31:26;;;;;;;98.00;44.33;;;;;;;;;;5131695;27;20043;-84
2021/09/22 06:33:53;;;;;;;88.22;43.85;;;;;;;;;;5116081;27;20238;-84
2021/09/22 06:36:21;;;;;;;83.22;42.88;;;;;;;;;;5114829;27;20394;-83
2021/09/22 06:38:48;;;;;;;77.45;38.17;;;;;;;;;;5102182;28;20120;-85
2021/09/22 06:41:15;;;;;;;53.70;30.67;;;;;;;;;;5092414;28;20237;-85
2021/09/22 06:43:43;;;;;;;54.92;31.23;;;;;;;;;;5109696;28;20119;-84
2021/09/22 06:46:14;;;;;;;48.88;26.15;;;;;;;;;;5111100;28;20328;-84
2021/09/22 06:48:45;;;;;;;37.25;22.85;;;;;;;;;;5111164;28;20066;-84
2021/09/22 06:51:13;;;;;;;36.05;22.90;;;;;;;;;;5097862;27;20062;-82
2021/09/22 06:53:40;;;;;;;35.22;21.98;;;;;;;;;;5135397;27;20082;-83
2021/09/22 06:56:07;;;;;;;37.13;23.90;;;;;;;;;;5133600;27;20036;-83
2021/09/22 06:58:34;;;;;;;41.10;21.35;;;;;;;;;;5115378;27;20058;-84
2021/09/22 07:01:01;;;;;;;35.97;22.10;;;;;;;;;;5111343;28;20107;-84
2021/09/22 07:03:37;;;;;;;37.80;22.10;;;;;;;;;;5117638;27;20047;-84
2021/09/22 07:06:09;;;;;;;31.70;19.33;;;;;;;;;;5121929;27;20314;-85
2021/09/22 07:08:35;;;;;;;33.20;19.65;;;;;;;;;;5115820;28;20116;-84
2021/09/22 07:11:15;;;;;;;29.92;18.50;;;;;;;;;;5095571;28;20070;-85
2021/09/22 07:13:41;;;;;;;30.88;18.38;;;;;;;;;;5117958;27;20135;-84
2021/09/22 07:16:15;;;;;;;31.20;18.67;;;;;;;;;;5113091;28;20051;-84
2021/09/22 07:18:43;;;;;;;29.10;17.65;;;;;;;;;;5115182;28;20057;-84
2021/09/22 07:21:11;;;;;;;26.52;17.40;;;;;;;;;;5120486;28;20176;-84
2021/09/22 07:23:44;;;;;;;25.02;15.20;;;;;;;;;;5115692;28;20051;-84
2021/09/22 07:26:11;;;;;;;23.92;16.30;;;;;;;;;;5104764;28;20052;-84
2021/09/22 07:28:40;;;;;;;20.23;13.68;;;;;;;;;;5092819;28;20411;-84
2021/09/22 07:31:19;;;;;;;20.55;12.93;;;;;;;;;;5091771;28;20303;-85
2021/09/22 07:33:46;;;;;;;24.15;14.45;;;;;;;;;;5101317;28;20176;-84
2021/09/22 07:36:14;;;;;;;21.00;14.10;;;;;;;;;;5120359;28;20056;-85
2021/09/22 07:38:50;;;;;;;24.05;13.77;;;;;;;;;;5120772;28;20067;-86
2021/09/22 07:41:20;;;;;;;;;;;;;;;;;;5116307;28;20252;-85
2021/09/22 07:43:46;;;;;;;;;;;;;;;;;;5109862;28;20062;-85
2021/09/22 07:46:14;;;;;;;18.77;12.75;;;;;;;;;;5101520;28;19986;-85
2021/09/22 07:48:40;;;;;;;21.45;12.55;;;;;;;;;;5112016;28;20381;-85
2021/09/22 07:51:08;;;;;;;17.75;11.80;;;;;;;;;;5104716;28;20276;-85
2021/09/22 07:53:35;;;;;;;23.20;12.38;;;;;;;;;;5118260;28;20067;-85
2021/09/22 07:56:03;;;;;;;17.35;11.50;;;;;;;;;;5118995;28;20055;-84
2021/09/22 07:58:30;;;;;;;15.10;10.40;;;;;;;;;;5112052;28;20547;-86
2021/09/22 08:00:58;;;;;;;14.80;9.18;;;;;;;;;;5112295;28;20057;-84
2021/09/22 08:03:25;;;;;;;17.73;8.70;;;;;;;;;;5107912;28;20048;-84
2021/09/22 08:05:52;;;;;;;11.60;8.02;;;;;;;;;;5109749;28;20047;-84
2021/09/22 08:08:20;;;;;;;18.92;8.88;;;;;;;;;;5102152;28;20048;-83
2021/09/22 08:10:49;;;;;;;17.85;7.65;;;;;;;;;;5108256;28;20100;-83
2021/09/22 08:13:16;;;;;;;12.55;7.07;;;;;;;;;;5106634;28;20074;-84
2021/09/22 08:15:45;;;;;;;11.48;7.85;;;;;;;;;;5114767;27;20331;-84
2021/09/22 08:18:12;;;;;;;13.27;6.90;;;;;;;;;;5114367;27;20062;-85
2021/09/22 08:20:39;;;;;;;13.40;7.10;;;;;;;;;;5115400;28;20256;-83
2021/09/22 08:23:08;;;;;;;8.88;5.70;;;;;;;;;;5113359;28;20055;-84
2021/09/22 08:25:35;;;;;;;10.98;5.53;;;;;;;;;;5112622;28;20396;-84
2021/09/22 08:28:02;;;;;;;6.45;4.70;;;;;;;;;;5112005;28;20055;-84
2021/09/22 08:30:31;;;;;;;8.48;4.35;;;;;;;;;;5107966;28;20170;-83
2021/09/22 08:33:01;;;;;;;10.15;4.28;;;;;;;;;;5130606;28;20047;-83
2021/09/22 08:35:38;;;;;;;7.60;4.18;;;;;;;;;;5121524;28;20336;-84
2021/09/22 08:38:04;;;;;;;8.98;3.72;;;;;;;;;;5124154;28;20074;-84
2021/09/22 08:40:31;;;;;;;10.00;3.60;;;;;;;;;;5104960;28;20186;-84
2021/09/22 08:42:59;;;;;;;9.73;4.25;;;;;;;;;;5109208;28;20212;-84
2021/09/22 08:45:28;;;;;;;6.97;4.18;;;;;;;;;;5125433;28;20056;-84
2021/09/22 08:47:59;;;;;;;8.55;3.83;;;;;;;;;;5123146;28;20051;-84
2021/09/22 08:50:25;;;;;;;9.65;3.83;;;;;;;;;;5108750;28;20051;-84
2021/09/22 08:53:04;;;;;;;6.60;3.55;;;;;;;;;;5114982;28;20113;-83
2021/09/22 08:55:32;;;;;;;8.35;2.70;;;;;;;;;;5121891;28;20265;-84
2021/09/22 08:58:00;;;;;;;7.88;2.38;;;;;;;;;;5124197;28;20135;-84
2021/09/22 09:00:28;;;;;;;7.63;2.22;;;;;;;;;;5137518;28;20078;-83
2021/09/22 09:02:55;;;;;;;4.45;2.28;;;;;;;;;;5110916;28;20443;-85
2021/09/22 09:05:23;;;;;;;11.43;2.60;;;;;;;;;;5115109;28;20291;-85
2021/09/22 09:07:58;;;;;;;6.68;2.13;;;;;;;;;;5106238;28;20051;-84
2021/09/22 09:10:27;;;;;;;7.05;2.20;;;;;;;;;;5135646;28;20086;-84
2021/09/22 09:13:01;;;;;;;10.38;2.28;;;;;;;;;;5112945;28;20305;-84
2021/09/22 09:15:36;;;;;;;6.40;2.10;;;;;;;;;;5133276;28;20051;-85
2021/09/22 09:18:31;;;;;;;3.83;1.67;;;;;;;;;;5108992;28;20079;-85
2021/09/22 09:21:04;;;;;;;4.35;1.90;;;;;;;;;;5094039;28;20056;-84
2021/09/22 09:23:31;;;;;;;6.90;1.98;;;;;;;;;;5107795;27;20138;-85
2021/09/22 09:26:03;;;;;;;5.07;2.05;;;;;;;;;;5117813;27;20112;-85
2021/09/22 09:28:32;;;;;;;7.90;2.78;;;;;;;;;;5112873;27;20313;-85
2021/09/22 09:31:07;;;;;;;6.53;2.47;;;;;;;;;;5115471;27;20047;-85
2021/09/22 09:33:34;;;;;;;7.93;2.60;;;;;;;;;;5106227;28;20052;-86
2021/09/22 09:36:23;;;;;;;7.88;2.55;;;;;;;;;;5096735;28;20051;-85
2021/09/22 09:38:52;;;;;;;9.60;3.03;;;;;;;;;;5130347;27;20141;-84
2021/09/22 09:41:48;;;;;;;6.82;3.20;;;;;;;;;;5133642;27;20198;-84
2021/09/22 09:44:21;;;;;;;9.05;3.17;;;;;;;;;;5124936;27;20069;-84
2021/09/22 09:46:49;;;;;;;6.80;2.83;;;;;;;;;;5114720;28;20094;-85
2021/09/22 09:49:17;;;;;;;7.25;3.40;;;;;;;;;;5112654;28;20055;-85
2021/09/22 09:51:46;;;;;;;8.57;3.05;;;;;;;;;;5115455;28;20073;-86
2021/09/22 09:54:27;;;;;;;6.20;2.90;;;;;;;;;;5113819;28;20414;-85
2021/09/22 09:57:08;;;;;;;7.07;3.20;;;;;;;;;;5128052;27;20150;-83
2021/09/22 09:59:46;;;;;;;9.90;2.90;;;;;;;;;;5130441;27;20038;-82
2021/09/22 10:02:30;;;;;;;6.78;2.83;;;;;;;;;;5140641;27;20136;-82
2021/09/22 10:04:59;;;;;;;6.63;3.08;;;;;;;;;;5106816;28;20063;-82
2021/09/22 10:07:27;;;;;;;7.60;4.03;;;;;;;;;;5114466;27;20047;-82
2021/09/22 10:09:54;;;;;;;8.82;3.25;;;;;;;;;;5110167;27;20059;-84
2021/09/22 10:12:22;;;;;;;11.60;3.97;;;;;;;;;;5133620;27;20199;-82
2021/09/22 10:14:50;;;;;;;7.15;3.58;;;;;;;;;;5130945;27;20094;-83
2021/09/22 10:17:19;;;;;;;7.45;3.20;;;;;;;;;;5130683;27;20067;-83
2021/09/22 10:19:47;;;;;;;10.38;3.00;;;;;;;;;;5113517;27;20051;-84
2021/09/22 10:22:16;;;;;;;11.48;3.50;;;;;;;;;;5110548;27;20047;-82
2021/09/22 10:24:49;;;;;;;6.15;2.60;;;;;;;;;;5119964;27;20059;-82
2021/09/22 10:27:18;;;;;;;6.47;2.60;;;;;;;;;;5131518;27;20047;-82
2021/09/22 10:29:50;;;;;;;8.32;3.35;;;;;;;;;;5132446;27;20046;-83
2021/09/22 10:32:40;;;;;;;11.35;3.45;;;;;;;;;;5133487;27;20046;-83
2021/09/22 10:35:26;;;;;;;7.72;3.10;;;;;;;;;;5108095;27;20116;-85
2021/09/22 10:37:53;;;;;;;5.18;2.35;;;;;;;;;;5089581;28;20079;-84
2021/09/22 10:40:39;;;;;;;8.02;3.15;;;;;;;;;;5091594;28;20104;-81
2021/09/22 10:43:14;;;;;;;7.82;3.33;;;;;;;;;;5105788;28;20392;-82
2021/09/22 10:45:41;;;;;;;7.65;3.47;;;;;;;;;;5088827;28;20051;-83
2021/09/22 10:48:24;;;;;;;8.65;3.25;;;;;;;;;;5105253;28;20047;-83
2021/09/22 10:50:52;;;;;;;7.57;3.65;;;;;;;;;;5096059;28;20109;-83
2021/09/22 10:53:31;;;;;;;9.82;3.42;;;;;;;;;;5104764;28;20065;-83
2021/09/22 10:56:01;;;;;;;6.20;3.15;;;;;;;;;;5089067;28;20044;-82
2021/09/22 10:58:43;;;;;;;7.28;2.90;;;;;;;;;;5090764;28;20404;-83
2021/09/22 11:01:29;;;;;;;8.43;3.38;;;;;;;;;;5107954;28;20231;-82
2021/09/22 11:04:07;;;;;;;6.30;3.40;;;;;;;;;;5103041;28;20055;-82
2021/09/22 11:06:47;;;;;;;7.40;3.35;;;;;;;;;;5108331;28;20104;-83
2021/09/22 11:09:21;;;;;;;6.68;3.20;;;;;;;;;;5127345;27;20336;-82
2021/09/22 11:12:01;;;;;;;6.72;2.53;;;;;;;;;;5105759;27;20196;-83
2021/09/22 11:14:30;;;;;;;6.05;2.30;;;;;;;;;;5108756;27;20170;-84
2021/09/22 11:17:11;;;;;;;7.32;2.50;;;;;;;;;;5117126;27;20100;-83
2021/09/22 11:19:39;;;;;;;8.93;2.25;;;;;;;;;;5093419;28;20044;-83
2021/09/22 11:22:12;;;;;;;7.90;2.55;;;;;;;;;;5109037;27;20051;-84
2021/09/22 11:24:43;;;;;;;8.85;3.17;;;;;;;;;;5113099;27;20453;-83
2021/09/22 11:27:14;;;;;;;8.90;2.80;;;;;;;;;;5132568;27;20187;-83
2021/09/22 11:30:03;;;;;;;5.60;2.72;;;;;;;;;;5119171;27;20059;-84
2021/09/22 11:32:37;;;;;;;7.35;3.22;;;;;;;;;;5115151;27;20052;-83
2021/09/22 11:35:17;;;;;;;11.85;3.30;;;;;;;;;;5104851;27;20154;-83
2021/09/22 11:37:53;;;;;;;9.73;3.50;;;;;;;;;;5118990;27;20055;-86
2021/09/22 11:40:31;;;;;;;8.25;3.00;;;;;;;;;;5130512;27;20172;-84
2021/09/22 11:43:06;;;;;;;7.38;3.47;;;;;;;;;;5110848;27;20086;-83
2021/09/22 11:45:46;;;;;;;9.27;4.30;;;;;;;;;;5112782;27;20274;-83
2021/09/22 11:48:15;;;;;;;10.38;4.40;;;;;;;;;;5113401;27;20047;-83
2021/09/22 11:50:43;;;;;;;7.88;4.55;;;;;;;;;;5110434;27;20059;-82
2021/09/22 11:53:14;;;;;;;10.10;4.35;;;;;;;;;;5113328;27;20054;-81
2021/09/22 11:55:42;;;;;;;9.50;4.70;;;;;;;;;;5131815;27;20074;-82
2021/09/22 11:58:12;;;;;;;16.90;5.47;;;;;;;;;;5129979;27;20100;-82
2021/09/22 12:00:43;;;;;;;12.00;4.82;;;;;;;;;;5136539;27;20047;-82
2021/09/22 12:03:12;;;;;;;11.95;4.88;;;;;;;;;;5143010;27;20043;-83
2021/09/22 12:05:44;;;;;;;11.65;4.10;;;;;;;;;;5138083;27;20166;-83
2021/09/22 12:08:35;;;;;;;11.48;4.80;;;;;;;;;;5093332;28;20333;-82
2021/09/22 12:11:10;;;;;;;10.07;4.57;;;;;;;;;;5093382;28;20158;-82
2021/09/22 12:13:41;;;;;;;9.52;4.53;;;;;;;;;;5102526;28;20503;-83
2021/09/22 12:16:08;;;;;;;12.18;4.57;;;;;;;;;;5096651;28;20043;-82
2021/09/22 12:18:40;;;;;;;10.57;4.32;;;;;;;;;;5107613;28;20773;-82
2021/09/22 12:21:07;;;;;;;10.30;4.45;;;;;;;;;;5107985;28;20353;-83
2021/09/22 12:23:35;;;;;;;8.23;4.47;;;;;;;;;;5125546;28;20438;-83
2021/09/22 12:26:28;;;;;;;12.05;4.70;;;;;;;;;;5109669;28;20055;-83
2021/09/22 12:29:09;;;;;;;11.32;5.03;;;;;;;;;;5077497;28;20055;-84
2021/09/22 12:31:40;;;;;;;10.88;5.15;;;;;;;;;;5110765;28;20246;-83
2021/09/22 12:34:17;;;;;;;9.77;5.10;;;;;;;;;;5125310;28;20059;-82
2021/09/22 12:36:47;;;;;;;10.25;5.05;;;;;;;;;;5124970;28;20131;-83
2021/09/22 12:39:17;;;;;;;10.02;4.35;;;;;;;;;;5087026;28;20079;-82
2021/09/22 12:42:08;;;;;;;12.13;4.90;;;;;;;;;;5102695;28;20300;-82
2021/09/22 12:44:56;;;;;;;11.18;4.53;;;;;;;;;;5107697;28;20059;-82
2021/09/22 12:47:23;;;;;;;11.18;4.93;;;;;;;;;;5086183;28;20048;-82
2021/09/22 12:50:09;;;;;;;10.30;5.60;;;;;;;;;;5086538;28;20298;-83
2021/09/22 12:52:37;;;;;;;9.48;4.97;;;;;;;;;;5085769;28;20147;-83
2021/09/22 12:55:17;;;;;;;11.93;4.38;;;;;;;;;;5116425;27;20298;-83
2021/09/22 12:57:46;;;;;;;12.63;5.20;;;;;;;;;;5128290;27;20057;-83
2021/09/22 13:00:27;;;;;;;10.10;4.88;;;;;;;;;;5111490;27;20479;-83
2021/09/22 13:03:06;;;;;;;14.02;5.63;;;;;;;;;;5125958;27;20303;-83
2021/09/22 13:05:42;;;;;;;12.88;5.63;;;;;;;;;;5130404;27;20230;-83
2021/09/22 13:08:09;;;;;;;;;;;;;;;;;;5128344;27;20046;-82
2021/09/22 13:11:06;;;;;;;10.57;5.00;;;;;;;;;;5128453;27;19923;-82
2021/09/22 13:13:39;;;;;;;9.70;4.90;;;;;;;;;;5126471;27;20070;-82
2021/09/22 13:16:14;;;;;;;11.40;4.97;;;;;;;;;;5108988;27;20395;-82
2021/09/22 13:18:44;;;;;;;9.98;4.43;;;;;;;;;;5112680;27;20063;-82
2021/09/22 13:21:11;;;;;;;12.68;5.13;;;;;;;;;;5106838;27;20128;-83
2021/09/22 13:23:47;;;;;;;12.65;5.10;;;;;;;;;;5091594;28;20142;-82
2021/09/22 13:26:14;;;;;;;8.60;4.68;;;;;;;;;;5087786;28;20063;-82
2021/09/22 13:28:46;;;;;;;10.00;5.93;;;;;;;;;;5106141;27;20046;-82
2021/09/22 13:31:15;;;;;;;11.38;5.90;;;;;;;;;;5108116;27;20482;-82
2021/09/22 13:33:49;;;;;;;16.50;5.85;;;;;;;;;;5127685;27;20107;-82
2021/09/22 13:36:21;;;;;;;12.10;6.20;;;;;;;;;;5104787;27;20206;-83
2021/09/22 13:38:52;;;;;;;;;;;;;;;;;;5107557;28;20051;-83
2021/09/22 13:41:19;;;;;;;10.20;4.43;;;;;;;;;;5112718;27;19988;-82
2021/09/22 13:43:47;;;;;;;12.45;5.50;;;;;;;;;;5116403;27;20154;-82
2021/09/22 13:46:14;;;;;;;12.73;4.88;;;;;;;;;;5096736;28;20055;-81
2021/09/22 13:48:41;;;;;;;11.80;5.00;;;;;;;;;;5105501;27;20055;-82
2021/09/22 13:51:08;;;;;;;15.32;6.15;;;;;;;;;;5114827;27;20051;-82
2021/09/22 13:53:35;;;;;;;12.80;6.38;;;;;;;;;;5131218;27;20062;-83
2021/09/22 13:56:02;;;;;;;15.27;6.72;;;;;;;;;;5128945;27;20165;-83
2021/09/22 13:58:29;;;;;;;11.35;6.10;;;;;;;;;;5108989;27;20094;-82
2021/09/22 14:01:02;;;;;;;12.35;5.05;;;;;;;;;;5106014;27;20090;-82
2021/09/22 14:03:33;;;;;;;13.32;5.55;;;;;;;;;;5103217;27;20047;-82
2021/09/22 14:06:02;;;;;;;12.35;5.25;;;;;;;;;;5110100;27;20408;-83
2021/09/22 14:08:33;;;;;;;12.50;5.15;;;;;;;;;;5128140;27;20407;-83
2021/09/22 14:11:02;;;;;;;12.18;5.22;;;;;;;;;;5110212;27;20051;-82
2021/09/22 14:13:29;;;;;;;14.27;5.82;;;;;;;;;;5098284;27;20058;-82
2021/09/22 14:16:00;;;;;;;11.02;5.15;;;;;;;;;;5118809;27;20233;-81
2021/09/22 14:18:27;;;;;;;13.32;5.55;;;;;;;;;;5119780;27;20066;-81
2021/09/22 14:20:57;;;;;;;14.65;6.65;;;;;;;;;;5113725;28;20082;-81
2021/09/22 14:23:27;;;;;;;11.85;5.30;;;;;;;;;;5089423;28;20116;-82
2021/09/22 14:25:56;;;;;;;8.43;5.10;;;;;;;;;;5105302;27;20050;-82
2021/09/22 14:28:25;;;;;;;9.60;6.07;;;;;;;;;;5135165;27;20059;-82
2021/09/22 14:30:52;;;;;;;10.82;5.47;;;;;;;;;;5126563;27;20119;-82
2021/09/22 14:33:19;;;;;;;15.20;5.80;;;;;;;;;;5123038;27;20111;-82
2021/09/22 14:35:47;;;;;;;11.27;6.03;;;;;;;;;;5112250;27;20096;-82
2021/09/22 14:38:18;;;;;;;11.90;6.03;;;;;;;;;;5112869;27;20272;-82
2021/09/22 14:40:48;;;;;;;11.82;5.93;;;;;;;;;;5113131;27;20058;-82
2021/09/22 14:43:15;;;;;;;13.10;4.85;;;;;;;;;;5110227;27;20062;-82
2021/09/22 14:45:52;;;;;;;10.77;4.70;;;;;;;;;;5099927;28;20047;-82